Time;durP1;ratioP1;P1;durP2;ratioP2;P2;SDS_P1;SDS_P2;PMS_P1;PMS_P2;Temp;Humidity;BMP_temperature;BMP_pressure;BME280_temperature;BME280_humidity;BME280_pressure;Samples;Min_cycle;Max_cycle;Signal;HPM_P1;HPM_P2
2024/01/11 00:00:25;;;;;;;;;;;;;;;-5.66;92.04;93875.13;5066415;28;19924;-70
2024/01/11 00:02:52;;;;;;;;;;;;;;;-5.64;92.46;93871.63;5060049;28;20146;-70
2024/01/11 00:05:18;;;;;;;;;;;;;;;-5.60;91.95;93872.22;5064645;28;19924;-70
2024/01/11 00:07:45;;;;;;;;;;;;;;;-5.58;91.90;93872.94;5063812;28;19924;-70
2024/01/11 00:10:12;;;;;;;;;;;;;;;-5.61;91.97;93869.84;5062799;28;19920;-70
2024/01/11 00:12:38;;;;;;;;;;;;;;;-5.65;91.63;93869.22;5059645;28;19935;-71
2024/01/11 00:15:05;;;;;;;;;;;;;;;-5.64;92.38;93866.63;5057431;28;19964;-71
2024/01/11 00:17:36;;;;;;;;;;;;;;;-5.70;91.95;93862.00;5063019;28;19998;-71
2024/01/11 00:20:03;;;;;;;;;;;;;;;-5.76;92.42;93859.88;5060629;28;20330;-70
2024/01/11 00:22:29;;;;;;;;;;;;;;;-5.74;92.92;93852.28;5061451;28;20031;-70
2024/01/11 00:24:56;;;;;;;;;;;;;;;-5.76;93.97;93849.84;5058669;28;19924;-70
2024/01/11 00:27:23;;;;;;;;;;;;;;;-5.67;93.58;93846.78;5062118;28;19935;-70
2024/01/11 00:29:49;;;;;;;;;;;;;;;-5.65;92.37;93850.00;5064681;28;20297;-70
2024/01/11 00:32:16;;;;;;;;;;;;;;;-5.68;91.20;93860.22;5061876;28;20023;-71
2024/01/11 00:34:44;;;;;;;;;;;;;;;-5.69;91.02;93842.78;5062749;28;20027;-70
2024/01/11 00:37:11;;;;;;;;;;;;;;;-5.76;91.78;93844.84;5063655;28;19936;-70
2024/01/11 00:39:37;;;;;;;;;;;;;;;-5.75;91.83;93848.16;5057962;28;19926;-70
2024/01/11 00:42:04;;;;;;;;;;;;;;;-5.77;91.16;93848.25;5063635;28;19924;-70
2024/01/11 00:44:31;;;;;;;;;;;;;;;-5.83;90.78;93841.13;5063847;28;19936;-70
2024/01/11 00:46:57;;;;;;;;;;;;;;;-5.89;90.80;93844.78;5058762;28;20316;-70
2024/01/11 00:49:24;;;;;;;;;;;;;;;-5.91;90.89;93836.59;5063264;28;20467;-70
2024/01/11 00:51:52;;;;;;;;;;;;;;;-5.96;90.31;93836.88;5062213;28;20396;-70
2024/01/11 00:54:19;;;;;;;;;;;;;;;-6.00;90.70;93837.16;5057836;28;19931;-70
2024/01/11 00:56:45;;;;;;;;;;;;;;;-6.04;90.72;93834.06;5062014;28;19946;-70
2024/01/11 00:59:12;;;;;;;;;;;;;;;-6.08;90.75;93830.94;5059160;28;20483;-70
2024/01/11 01:01:39;;;;;;;;;;;;;;;-6.00;92.79;93832.97;5063767;28;19920;-70
2024/01/11 01:04:05;;;;;;;;;;;;;;;-6.07;91.26;93834.25;5060551;28;20301;-71
2024/01/11 01:06:32;;;;;;;;;;;;;;;-6.04;90.61;93834.06;5063063;28;19920;-71
2024/01/11 01:09:00;;;;;;;;;;;;;;;-6.03;92.14;93843.16;5055446;28;19972;-71
2024/01/11 01:11:26;;;;;;;;;;;;;;;-6.00;91.63;93832.97;5059981;28;19946;-71
2024/01/11 01:13:53;;;;;;;;;;;;;;;-6.04;90.71;93832.38;5062693;28;19920;-71
2024/01/11 01:16:20;;;;;;;;;;;;;;;-6.05;91.47;93842.47;5063036;28;20534;-70
2024/01/11 01:18:46;;;;;;;;;;;;;;;-6.09;90.80;93836.84;5062852;28;20003;-70
2024/01/11 01:21:13;;;;;;;;;;;;;;;-6.08;91.68;93835.94;5062337;28;19924;-70
2024/01/11 01:23:40;;;;;;;;;;;;;;;-6.07;91.85;93834.25;5056267;28;20692;-70
2024/01/11 01:26:08;;;;;;;;;;;;;;;-6.10;91.75;93836.94;5059971;28;20497;-70
2024/01/11 01:28:36;;;;;;;;;;;;;;;-6.09;92.44;93831.84;5060612;28;19930;-70
2024/01/11 01:31:02;;;;;;;;;;;;;;;-6.09;92.38;93821.84;5063921;28;20035;-71
2024/01/11 01:33:29;;;;;;;;;;;;;;;-6.10;91.83;93816.94;5066822;28;20403;-71
2024/01/11 01:35:56;;;;;;;;;;;;;;;-6.11;92.66;93818.63;5066233;28;19924;-71
2024/01/11 01:38:22;;;;;;;;;;;;;;;-6.11;93.35;93817.84;5064137;28;19924;-71
2024/01/11 01:40:49;;;;;;;;;;;;;;;-6.05;93.87;93820.78;5063944;28;19951;-72
2024/01/11 01:43:17;;;;;;;;;;;;;;;-6.08;92.59;93813.44;5063621;28;20417;-71
2024/01/11 01:45:44;;;;;;;;;;;;;;;-6.09;92.20;93806.84;5063295;28;19927;-71
2024/01/11 01:48:10;;;;;;;;;;;;;;;-6.13;92.57;93812.91;5065346;28;19931;-71
2024/01/11 01:50:37;;;;;;;;;;;;;;;-6.40;91.86;93770.41;5063523;28;20036;-71
2024/01/11 01:53:04;;;;;;;;;;;;;;;-6.17;91.42;93801.50;5057061;28;19974;-71
2024/01/11 01:55:31;;;;;;;;;;;;;;;-6.22;91.76;93805.97;5062486;28;19932;-71
2024/01/11 01:57:59;;;;;;;;;;;;;;;-6.15;92.10;93801.41;5064583;28;19925;-71
2024/01/11 02:00:27;;;;;;;;;;;;;;;-6.18;92.20;93799.88;5066609;28;19920;-71
2024/01/11 02:02:56;;;;;;;;;;;;;;;-6.27;91.31;93798.75;5062848;28;19931;-71
2024/01/11 02:05:22;;;;;;;;;;;;;;;-6.29;92.34;93790.56;5066277;28;19920;-71
2024/01/11 02:07:49;;;;;;;;;;;;;;;-6.29;92.43;93789.72;5066838;28;19993;-71
2024/01/11 02:10:16;;;;;;;;;;;;;;;-6.34;92.25;93788.31;5064106;28;19920;-71
2024/01/11 02:12:42;;;;;;;;;;;;;;;-6.35;92.05;93786.72;5063074;28;19930;-71
2024/01/11 02:15:10;;;;;;;;;;;;;;;-6.34;92.01;93790.03;5065912;28;19982;-71
2024/01/11 02:17:40;;;;;;;;;;;;;;;-6.30;94.10;93783.91;5060331;28;20007;-71
2024/01/11 02:20:07;;;;;;;;;;;;;;;-6.27;92.61;93777.94;5064268;28;19924;-71
2024/01/11 02:22:36;;;;;;;;;;;;;;;-6.23;91.62;93786.84;5064149;28;19931;-71
2024/01/11 02:25:05;;;;;;;;;;;;;;;-6.22;91.36;93780.97;5059321;28;20283;-71
2024/01/11 02:27:31;;;;;;;;;;;;;;;-6.26;91.26;93780.34;5065143;28;19928;-71
2024/01/11 02:29:58;;;;;;;;;;;;;;;-6.26;91.83;93787.06;5065701;28;19927;-71
2024/01/11 02:32:25;;;;;;;;;;;;;;;-6.27;90.79;93781.25;5065410;28;19924;-71
2024/01/11 02:34:51;;;;;;;;;;;;;;;-6.35;90.94;93781.72;5062981;28;19931;-71
2024/01/11 02:37:19;;;;;;;;;;;;;;;-6.27;92.02;93782.94;5065002;28;19924;-71
2024/01/11 02:39:46;;;;;;;;;;;;;;;-6.33;92.56;93779.13;5063059;28;20039;-71
2024/01/11 02:42:14;;;;;;;;;;;;;;;-6.41;92.68;93776.28;5064094;28;19929;-70
2024/01/11 02:44:40;;;;;;;;;;;;;;;-6.50;93.29;93770.94;5060672;28;19944;-71
2024/01/11 02:47:07;;;;;;;;;;;;;;;-6.48;93.57;93781.63;5064973;28;19979;-71
2024/01/11 02:49:34;;;;;;;;;;;;;;;-6.42;93.21;93784.66;5064463;28;20309;-71
2024/01/11 02:52:00;;;;;;;;;;;;;;;-6.39;93.87;93777.00;5059431;28;19931;-71
2024/01/11 02:54:27;;;;;;;;;;;;;;;-6.35;93.60;93768.41;5063073;28;19967;-71
2024/01/11 02:56:54;;;;;;;;;;;;;;;-6.35;92.25;93769.22;5061294;28;20390;-71
2024/01/11 02:59:22;;;;;;;;;;;;;;;-6.35;91.66;93763.44;5063360;28;20633;-71
2024/01/11 03:01:48;;;;;;;;;;;;;;;-6.36;92.92;93762.59;5064722;28;20310;-71
2024/01/11 03:04:15;;;;;;;;;;;;;;;-6.36;92.13;93765.09;5062625;28;19924;-71
2024/01/11 03:06:42;;;;;;;;;;;;;;;-6.37;92.65;93765.19;5059823;28;19931;-71
2024/01/11 03:09:08;;;;;;;;;;;;;;;-6.39;91.03;93767.00;5063206;28;19920;-71
2024/01/11 03:11:37;;;;;;;;;;;;;;;-6.37;91.82;93757.69;5062683;28;19924;-71
2024/01/11 03:14:04;;;;;;;;;;;;;;;-6.37;92.00;93767.69;5059128;28;20111;-71
2024/01/11 03:16:32;;;;;;;;;;;;;;;-6.35;93.29;93765.91;5061643;28;19931;-71
2024/01/11 03:18:58;;;;;;;;;;;;;;;-6.28;92.92;93761.34;5060362;28;19930;-71
2024/01/11 03:21:25;;;;;;;;;;;;;;;-6.31;92.49;93764.81;5061372;28;20300;-72
2024/01/11 03:23:52;;;;;;;;;;;;;;;-6.26;93.14;93760.34;5056901;28;19925;-71
2024/01/11 03:26:18;;;;;;;;;;;;;;;-6.27;92.89;93761.25;5059663;28;19925;-71
2024/01/11 03:28:45;;;;;;;;;;;;;;;-6.26;92.48;93764.56;5060273;28;20486;-71
2024/01/11 03:31:12;;;;;;;;;;;;;;;-6.23;92.43;93760.16;5062056;28;19935;-71
2024/01/11 03:33:40;;;;;;;;;;;;;;;-6.33;90.58;93759.94;5061585;28;20015;-71
2024/01/11 03:36:10;;;;;;;;;;;;;;;-6.29;92.37;93759.72;5059789;28;19920;-71
2024/01/11 03:38:37;;;;;;;;;;;;;;;-6.28;91.01;93754.66;5062783;28;19978;-70
2024/01/11 03:41:08;;;;;;;;;;;;;;;-6.35;90.29;93748.44;5062914;28;19931;-70
2024/01/11 03:43:35;;;;;;;;;;;;;;;-6.38;90.32;93746.09;5063161;28;19924;-71
2024/01/11 03:46:02;;;;;;;;;;;;;;;-6.42;90.91;93747.16;5061905;28;19924;-71
2024/01/11 03:48:28;;;;;;;;;;;;;;;-6.38;90.78;93753.59;5063669;28;20411;-72
2024/01/11 03:50:56;;;;;;;;;;;;;;;-6.45;90.43;93751.47;5055065;28;19921;-72
2024/01/11 03:53:25;;;;;;;;;;;;;;;-6.39;90.56;93752.78;5061360;28;20223;-71
2024/01/11 03:55:51;;;;;;;;;;;;;;;-6.36;90.74;93757.59;5064120;28;21052;-71
2024/01/11 03:58:18;;;;;;;;;;;;;;;-6.46;90.55;93754.06;5059977;28;19930;-71
2024/01/11 04:00:44;;;;;;;;;;;;;;;-6.44;90.38;93753.06;5059793;28;19920;-71
2024/01/11 04:03:11;;;;;;;;;;;;;;;-6.44;90.41;93754.75;5064729;28;19921;-71
2024/01/11 04:05:38;;;;;;;;;;;;;;;-6.52;90.19;93742.75;5060460;28;20015;-71
2024/01/11 04:08:07;;;;;;;;;;;;;;;-6.51;91.29;93744.34;5063741;28;19927;-71
2024/01/11 04:10:34;;;;;;;;;;;;;;;-6.54;89.60;93744.53;5061518;28;19931;-71
2024/01/11 04:13:00;;;;;;;;;;;;;;;-6.55;91.45;93737.94;5060465;28;20015;-71
2024/01/11 04:15:27;;;;;;;;;;;;;;;-6.55;90.86;93740.41;5063876;28;19928;-71
2024/01/11 04:17:54;;;;;;;;;;;;;;;-6.56;90.75;93738.81;5063551;28;19926;-71
2024/01/11 04:20:20;;;;;;;;;;;;;;;-6.52;91.56;93732.75;5058133;28;19986;-71
2024/01/11 04:22:47;;;;;;;;;;;;;;;-6.48;91.58;93728.38;5058412;28;20396;-71
2024/01/11 04:25:15;;;;;;;;;;;;;;;-6.48;91.98;93728.38;5056868;28;20036;-71
2024/01/11 04:27:41;;;;;;;;;;;;;;;-6.46;91.63;93721.56;5059641;28;19926;-71
2024/01/11 04:30:08;;;;;;;;;;;;;;;-6.44;92.16;93719.75;5061155;28;19924;-71
2024/01/11 04:32:35;;;;;;;;;;;;;;;-6.47;91.35;93719.97;5056092;28;19924;-71
2024/01/11 04:35:02;;;;;;;;;;;;;;;-6.50;90.08;93717.66;5063138;28;19924;-71
2024/01/11 04:37:28;;;;;;;;;;;;;;;-6.59;88.41;93717.31;5062121;28;19926;-71
2024/01/11 04:39:55;;;;;;;;;;;;;;;-6.59;89.32;93719.00;5062312;28;19924;-71
2024/01/11 04:42:23;;;;;;;;;;;;;;;-6.64;89.26;93720.97;5060895;28;19935;-71
2024/01/11 04:44:49;;;;;;;;;;;;;;;-6.65;88.57;93732.69;5061812;28;19947;-71
2024/01/11 04:47:16;;;;;;;;;;;;;;;-6.73;88.70;93728.16;5062069;28;19929;-72
2024/01/11 04:49:43;;;;;;;;;;;;;;;-6.77;89.46;93729.22;5063660;28;19927;-71
2024/01/11 04:52:09;;;;;;;;;;;;;;;-6.76;90.50;93725.81;5061834;28;19931;-71
2024/01/11 04:54:35;;;;;;;;;;;;;;;-6.74;90.73;93733.22;5058621;28;19920;-71
2024/01/11 04:57:02;;;;;;;;;;;;;;;-6.76;90.15;93720.81;5062025;28;19931;-71
2024/01/11 04:59:30;;;;;;;;;;;;;;;-6.77;89.50;93724.22;5060277;28;20012;-71
2024/01/11 05:01:56;;;;;;;;;;;;;;;-6.80;89.74;93723.59;5063271;28;19924;-72
2024/01/11 05:04:23;;;;;;;;;;;;;;;-6.85;88.92;93732.16;5059528;28;19938;-72
2024/01/11 05:06:49;;;;;;;;;;;;;;;-6.86;89.56;93727.25;5061421;28;20515;-71
2024/01/11 05:09:16;;;;;;;;;;;;;;;-6.92;91.17;93725.13;5061387;28;19921;-71
2024/01/11 05:11:43;;;;;;;;;;;;;;;-6.89;91.57;93717.47;5059262;28;19928;-71
2024/01/11 05:14:09;;;;;;;;;;;;;;;-6.85;92.74;93724.69;5061773;28;19926;-71
2024/01/11 05:16:39;;;;;;;;;;;;;;;-6.82;92.23;93716.19;5063852;28;19931;-71
2024/01/11 05:19:05;;;;;;;;;;;;;;;-6.79;92.00;93717.72;5062991;28;19920;-71
2024/01/11 05:21:32;;;;;;;;;;;;;;;-6.76;90.69;93715.81;5061461;28;19931;-71
2024/01/11 05:23:58;;;;;;;;;;;;;;;-6.73;91.05;93714.84;5059534;28;20404;-72
2024/01/11 05:26:25;;;;;;;;;;;;;;;-6.69;91.76;93708.78;5060812;28;19927;-70
2024/01/11 05:28:52;;;;;;;;;;;;;;;-6.68;90.95;93709.59;5062589;28;19926;-70
2024/01/11 05:31:19;;;;;;;;;;;;;;;-6.71;90.35;93713.06;5062908;28;19920;-70
2024/01/11 05:33:47;;;;;;;;;;;;;;;-6.69;90.10;93712.94;5062812;28;19942;-70
2024/01/11 05:36:14;;;;;;;;;;;;;;;-6.68;90.38;93715.38;5061326;28;19921;-71
2024/01/11 05:38:41;;;;;;;;;;;;;;;-6.72;89.82;93711.44;5059760;28;19925;-71
2024/01/11 05:41:07;;;;;;;;;;;;;;;-6.71;90.33;93708.06;5060370;28;19920;-71
2024/01/11 05:43:34;;;;;;;;;;;;;;;-6.65;90.37;93704.38;5064096;28;19924;-71
2024/01/11 05:46:01;;;;;;;;;;;;;;;-6.65;90.38;93701.88;5059671;28;20388;-70
2024/01/11 05:48:28;;;;;;;;;;;;;;;-6.65;90.32;93706.88;5058346;28;19930;-70
2024/01/11 05:50:56;;;;;;;;;;;;;;;-6.65;90.46;93707.69;5063338;28;19924;-71
2024/01/11 05:53:24;;;;;;;;;;;;;;;-6.67;90.19;93713.69;5057912;28;20360;-70
2024/01/11 05:55:51;;;;;;;;;;;;;;;-6.66;90.08;93712.78;5064387;28;20424;-70
2024/01/11 05:58:18;;;;;;;;;;;;;;;-6.70;89.51;93709.66;5058786;28;19927;-70
2024/01/11 06:00:45;;;;;;;;;;;;;;;-6.75;89.90;93707.44;5063383;28;20025;-70
2024/01/11 06:03:12;;;;;;;;;;;;;;;-6.73;90.37;93708.16;5063586;28;19929;-71
2024/01/11 06:05:40;;;;;;;;;;;;;;;-6.73;89.09;93703.16;5063904;28;20301;-71
2024/01/11 06:08:08;;;;;;;;;;;;;;;-6.75;89.97;93704.16;5057741;28;19921;-72
2024/01/11 06:10:34;;;;;;;;;;;;;;;-6.78;89.64;93700.13;5060965;28;19924;-71
2024/01/11 06:13:01;;;;;;;;;;;;;;;-6.78;89.79;93697.63;5061094;28;19934;-71
2024/01/11 06:15:27;;;;;;;;;;;;;;;-6.77;89.75;93703.44;5066203;28;19931;-71
2024/01/11 06:17:54;;;;;;;;;;;;;;;-6.79;90.06;93700.22;5064931;28;20412;-71
2024/01/11 06:20:21;;;;;;;;;;;;;;;-6.74;90.28;93694.06;5064831;28;19925;-71
2024/01/11 06:22:47;;;;;;;;;;;;;;;-6.74;90.43;93698.25;5063659;28;19930;-72
2024/01/11 06:25:16;;;;;;;;;;;;;;;-6.75;90.43;93696.66;5063749;28;19924;-72
2024/01/11 06:27:43;;;;;;;;;;;;;;;-6.75;89.10;93694.16;5054255;28;19931;-71
2024/01/11 06:30:10;;;;;;;;;;;;;;;-6.80;88.89;93694.44;5051923;28;19930;-71
2024/01/11 06:32:36;;;;;;;;;;;;;;;-6.81;89.25;93694.53;5050659;28;20064;-72
2024/01/11 06:35:04;;;;;;;;;;;;;;;-6.80;88.42;93694.44;5051084;28;19927;-71
2024/01/11 06:37:30;;;;;;;;;;;;;;;-6.79;89.64;93693.53;5053743;28;19925;-71
2024/01/11 06:39:57;;;;;;;;;;;;;;;-6.82;89.80;93688.72;5053743;28;19928;-71
2024/01/11 06:42:25;;;;;;;;;;;;;;;-6.75;89.91;93686.66;5053221;28;19924;-72
2024/01/11 06:44:52;;;;;;;;;;;;;;;-6.62;90.56;93684.22;5054099;28;19921;-71
2024/01/11 06:47:18;;;;;;;;;;;;;;;-6.63;90.59;93677.63;5053317;28;19931;-72
2024/01/11 06:49:45;;;;;;;;;;;;;;;-6.60;90.07;93674.94;5052729;28;19921;-71
2024/01/11 06:52:12;;;;;;;;;;;;;;;-6.52;91.18;93675.28;5051839;28;19935;-71
2024/01/11 06:54:38;;;;;;;;;;;;;;;-6.48;90.25;93679.16;5052990;28;19925;-71
2024/01/11 06:57:05;;;;;;;;;;;;;;;-6.41;91.25;93671.28;5056675;28;19924;-71
2024/01/11 06:59:33;;;;;;;;;;;;;;;-6.35;91.01;93676.72;5050689;28;20481;-70
2024/01/11 07:02:00;;;;;;;;;;;;;;;-6.28;90.61;93676.31;5052338;28;19927;-71
2024/01/11 07:04:26;;;;;;;;;;;;;;;-6.22;90.08;93674.25;5051049;28;20402;-71
2024/01/11 07:06:53;;;;;;;;;;;;;;;-6.19;91.21;93673.25;5062073;28;19927;-71
2024/01/11 07:09:20;;;;;;;;;;;;;;;-6.49;91.52;93672.56;5055816;28;19920;-71
2024/01/11 07:11:46;;;;;;;;;;;;;;;-6.56;92.52;93678.84;5051754;28;20286;-71
2024/01/11 07:14:13;;;;;;;;;;;;;;;-6.54;93.82;93673.75;5054837;28;19921;-70
2024/01/11 07:16:41;;;;;;;;;;;;;;;-6.17;94.77;93667.25;5054965;28;19924;-70
2024/01/11 07:19:08;;;;;;;;;;;;;;;-6.26;95.99;93669.53;5052466;28;20294;-71
2024/01/11 07:21:34;;;;;;;;;;;;;;;-6.41;98.50;93662.09;5055284;28;19927;-70
2024/01/11 07:24:01;;;;;;;;;;;;;;;-6.29;99.21;93667.22;5057259;28;19925;-70
2024/01/11 07:26:28;;;;;;;;;;;;;;;-5.93;99.97;93663.28;5050944;28;19921;-70
2024/01/11 07:28:55;;;;;;;;;;;;;;;-5.80;100.00;93664.09;5062849;28;19920;-70
2024/01/11 07:31:22;;;;;;;;;;;;;;;-5.88;100.00;93653.75;5054978;28;20508;-70
2024/01/11 07:33:50;;;;;;;;;;;;;;;-5.73;100.00;93653.69;5053582;28;20389;-70
2024/01/11 07:36:17;;;;;;;;;;;;;;;-5.74;100.00;93660.38;5050776;28;20379;-70
2024/01/11 07:38:44;;;;;;;;;;;;;;;-5.56;100.00;93653.38;5051755;28;20465;-70
2024/01/11 07:41:11;;;;;;;;;;;;;;;-5.42;100.00;93647.44;5049065;28;19927;-70
2024/01/11 07:43:37;;;;;;;;;;;;;;;-5.60;100.00;93656.19;5054631;28;20325;-70
2024/01/11 07:46:05;;;;;;;;;;;;;;;-5.43;100.00;93648.38;5051114;28;20410;-70
2024/01/11 07:48:32;;;;;;;;;;;;;;;-5.32;100.00;93646.84;5054167;28;19968;-70
2024/01/11 07:51:00;;;;;;;;;;;;;;;-5.84;100.00;93644.38;5050869;28;19924;-70
2024/01/11 07:53:27;;;;;;;;;;;;;;;-5.63;100.00;93640.47;5055017;28;19925;-70
2024/01/11 07:55:53;;;;;;;;;;;;;;;-5.91;100.00;93647.28;5054121;28;20007;-70
2024/01/11 07:58:21;;;;;;;;;;;;;;;-5.97;100.00;93640.13;5055980;28;20404;-70
2024/01/11 08:00:48;;;;;;;;;;;;;;;-5.46;100.00;93637.75;5049848;28;20344;-70
2024/01/11 08:03:15;;;;;;;;;;;;;;;-5.41;100.00;93633.25;5051643;28;19921;-70
2024/01/11 08:05:43;;;;;;;;;;;;;;;-5.13;100.00;93632.19;5053298;28;19924;-70
2024/01/11 08:08:11;;;;;;;;;;;;;;;-4.90;100.00;93629.84;5053625;28;19931;-70
2024/01/11 08:10:37;;;;;;;;;;;;;;;-4.74;100.00;93633.78;5060817;28;19926;-70
2024/01/11 08:13:04;;;;;;;;;;;;;;;-4.47;100.00;93627.75;5052496;28;19920;-70
2024/01/11 08:15:31;;;;;;;;;;;;;;;-4.18;100.00;93619.88;5048930;28;20461;-70
2024/01/11 08:17:57;;;;;;;;;;;;;;;-3.92;98.74;93618.00;5060225;28;19927;-71
2024/01/11 08:20:24;;;;;;;;;;;;;;;-3.76;97.00;93615.16;5054599;28;20421;-71
2024/01/11 08:22:51;;;;;;;;;;;;;;;-3.56;95.45;93619.66;5057903;28;19921;-71
2024/01/11 08:25:19;;;;;;;;;;;;;;;-3.40;94.31;93622.63;5048783;28;20007;-71
2024/01/11 08:27:46;;;;;;;;;;;;;;;-3.47;94.01;93618.16;5052638;28;19921;-71
2024/01/11 08:30:13;;;;;;;;;;;;;;;-3.28;94.50;93622.63;5049948;28;19924;-71
2024/01/11 08:32:41;;;;;;;;;;;;;;;-3.34;93.63;93613.81;5047939;28;19925;-71
2024/01/11 08:35:09;;;;;;;;;;;;;;;-3.35;94.46;93617.25;5053591;28;19928;-71
2024/01/11 08:37:36;;;;;;;;;;;;;;;-3.27;94.39;93609.13;5049830;28;19924;-71
2024/01/11 08:40:04;;;;;;;;;;;;;;;-3.63;96.30;93611.75;5056976;28;19924;-71
2024/01/11 08:42:32;;;;;;;;;;;;;;;-3.73;97.27;93616.66;5050887;28;19920;-71
2024/01/11 08:45:03;;;;;;;;;;;;;;;-3.92;99.66;93617.19;5050760;28;19934;-71
2024/01/11 08:47:30;;;;;;;;;;;;;;;-3.91;99.06;93618.78;5061684;28;19920;-70
2024/01/11 08:49:57;;;;;;;;;;;;;;;-3.97;100.00;93622.56;5059811;28;19924;-71
2024/01/11 08:52:24;;;;;;;;;;;;;;;-3.76;100.00;93610.16;5057798;28;20305;-71
2024/01/11 08:54:50;;;;;;;;;;;;;;;-3.48;100.00;93604.78;5060867;28;19924;-71
2024/01/11 08:57:17;;;;;;;;;;;;;;;-3.49;98.13;93599.00;5060443;28;20301;-71
2024/01/11 08:59:45;;;;;;;;;;;;;;;-3.30;97.81;93604.31;5060989;28;19931;-71
2024/01/11 09:02:12;;;;;;;;;;;;;;;-3.33;97.39;93602.06;5057009;28;19932;-71
2024/01/11 09:04:38;;;;;;;;;;;;;;;-3.55;97.11;93601.97;5060331;28;19924;-71
2024/01/11 09:07:05;;;;;;;;;;;;;;;-3.23;96.37;93591.19;5047672;28;19930;-71
2024/01/11 09:09:32;;;;;;;;;;;;;;;-2.95;93.79;93599.13;5048002;28;19920;-72
2024/01/11 09:11:58;;;;;;;;;;;;;;;-2.76;93.98;93602.78;5052843;28;20267;-72
2024/01/11 09:14:25;;;;;;;;;;;;;;;-2.49;96.22;93588.16;5053986;28;20297;-72
2024/01/11 09:16:53;;;;;;;;;;;;;;;-2.24;94.15;93589.53;5048965;28;19938;-72
2024/01/11 09:19:19;;;;;;;;;;;;;;;-2.39;88.54;93591.56;5061257;28;20423;-72
2024/01/11 09:21:46;;;;;;;;;;;;;;;-2.58;86.98;93584.66;5058830;28;19921;-72
2024/01/11 09:24:13;;;;;;;;;;;;;;;-2.34;85.12;93588.66;5056872;28;19926;-72
2024/01/11 09:26:40;;;;;;;;;;;;;;;-2.20;86.81;93583.34;5060768;28;19928;-72
2024/01/11 09:29:06;;;;;;;;;;;;;;;-1.95;89.71;93581.38;5064103;28;20399;-72
2024/01/11 09:31:33;;;;;;;;;;;;;;;-1.75;89.74;93578.97;5061652;28;19924;-72
2024/01/11 09:34:01;;;;;;;;;;;;;;;-1.56;87.73;93575.75;5058700;28;19926;-72
2024/01/11 09:36:28;;;;;;;;;;;;;;;-1.37;87.36;93571.69;5058540;28;19926;-72
2024/01/11 09:38:55;;;;;;;;;;;;;;;-1.26;87.40;93568.25;5060487;28;19925;-72
2024/01/11 09:41:23;;;;;;;;;;;;;;;-1.35;85.25;93568.13;5050622;28;19940;-72
2024/01/11 09:43:52;;;;;;;;;;;;;;;-1.31;84.66;93566.13;5052829;28;20313;-73
2024/01/11 09:46:20;;;;;;;;;;;;;;;-1.52;87.27;93558.66;5054956;28;19964;-72
2024/01/11 09:48:48;;;;;;;;;;;;;;;-1.62;86.73;93564.44;5056065;28;19930;-73
2024/01/11 09:51:16;;;;;;;;;;;;;;;-1.35;86.56;93555.50;5061058;28;20326;-72
2024/01/11 09:53:43;;;;;;;;;;;;;;;-1.09;88.68;93550.00;5060914;28;19930;-73
2024/01/11 09:56:11;;;;;;;;;;;;;;;-1.02;87.45;93545.22;5067250;28;20293;-73
2024/01/11 09:58:37;;;;;;;;;;;;;;;-1.03;83.66;93547.91;5066267;28;19920;-73
2024/01/11 10:01:07;;;;;;;;;;;;;;;-0.95;80.65;93543.81;5067756;28;20254;-73
2024/01/11 10:03:34;;;;;;;;;;;;;;;-0.85;82.42;93537.94;5061213;28;19924;-73
2024/01/11 10:06:01;;;;;;;;;;;;;;;-0.76;84.76;93536.38;5063109;28;19930;-73
2024/01/11 10:08:31;;;;;;;;;;;;;;;-0.56;85.68;93530.41;5067229;28;20964;-73
2024/01/11 10:10:57;;;;;;;;;;;;;;;-0.66;81.06;93536.38;5057497;28;20015;-73
2024/01/11 10:13:27;;;;;;;;;;;;;;;-0.51;80.09;93522.41;5051573;28;19920;-73
2024/01/11 10:15:53;;;;;;;;;;;;;;;-0.29;79.89;93523.06;5051643;28;19994;-73
2024/01/11 10:18:23;;;;;;;;;;;;;;;-0.28;77.79;93519.59;5056562;28;20374;-73
2024/01/11 10:20:52;;;;;;;;;;;;;;;-0.38;76.46;93526.41;5059450;28;20049;-73
2024/01/11 10:23:18;;;;;;;;;;;;;;;-0.19;80.62;93511.22;5060945;28;19928;-73
2024/01/11 10:25:46;;;;;;;;;;;;;;;0.02;79.22;93502.66;5058009;28;19920;-73
2024/01/11 10:28:14;;;;;;;;;;;;;;;0.12;77.71;93502.63;5065813;28;19927;-73
2024/01/11 10:30:41;;;;;;;;;;;;;;;0.30;77.83;93496.84;5066073;28;19921;-73
2024/01/11 10:33:08;;;;;;;;;;;;;;;0.45;79.33;93492.13;5055119;28;19940;-73
2024/01/11 10:35:35;;;;;;;;;;;;;;;0.62;80.80;93485.53;5059938;28;19921;-73
2024/01/11 10:38:06;;;;;;;;;;;;;;;0.71;79.57;93486.41;5054351;28;19932;-72
2024/01/11 10:40:33;;;;;;;;;;;;;;;0.83;75.24;93487.78;5057682;28;20010;-72
2024/01/11 10:43:02;;;;;;;;;;;;;;;0.85;72.82;93483.41;5055945;28;19928;-72
2024/01/11 10:45:29;;;;;;;;;;;;;;;0.70;72.68;93474.72;5052099;28;20382;-72
2024/01/11 10:47:56;;;;;;;;;;;;;;;0.68;71.77;93479.13;5049785;28;19927;-72
2024/01/11 10:50:23;;;;;;;;;;;;;;;0.46;72.90;93466.72;5055658;28;19924;-72
2024/01/11 10:53:01;;;;;;;;;;;;;;;0.46;75.34;93463.41;5054351;28;19970;-72
2024/01/11 10:55:28;;;;;;;;;;;;;;;0.23;76.01;93461.25;5054451;28;19930;-72
2024/01/11 10:57:55;;;;;;;;;;;;;;;0.50;76.26;93452.88;5058511;28;19927;-72
2024/01/11 11:00:24;;;;;;;;;;;;;;;0.62;73.23;93453.47;5062870;28;20534;-72
2024/01/11 11:02:52;;;;;;;;;;;;;;;0.56;75.34;93443.94;5054009;28;19920;-72
2024/01/11 11:05:19;;;;;;;;;;;;;;;0.43;76.79;93434.16;5050187;28;19927;-73
2024/01/11 11:07:47;;;;;;;;;;;;;;;0.74;80.24;93433.03;5050314;28;19924;-72
2024/01/11 11:10:14;;;;;;;;;;;;;;;0.97;81.01;93430.84;5053641;28;19931;-72
2024/01/11 11:12:41;;;;;;;;;;;;;;;1.14;81.11;93423.41;5050846;28;19921;-72
2024/01/11 11:15:09;;;;;;;;;;;;;;;0.70;76.73;93419.88;5048863;28;19924;-72
2024/01/11 11:17:37;;;;;;;;;;;;;;;0.98;79.11;93414.75;5052918;28;19970;-72
2024/01/11 11:20:05;;;;;;;;;;;;;;;0.72;77.19;93407.88;5053702;28;19925;-73
2024/01/11 11:22:34;;;;;;;;;;;;;;;1.06;78.96;93398.81;5051218;28;19921;-72
2024/01/11 11:25:05;;;;;;;;;;;;;;;0.74;76.17;93405.22;5050244;28;20198;-72
2024/01/11 11:27:32;;;;;;;;;;;;;;;0.65;78.81;93399.31;5055175;28;19930;-73
2024/01/11 11:29:58;;;;;;;;;;;;;;;0.73;78.63;93386.72;5051103;28;19927;-73
2024/01/11 11:32:37;;;;;;;;;;;;;;;0.83;77.14;93375.75;5055837;28;20294;-73
2024/01/11 11:35:05;;;;;;;;;;;;;;;0.96;77.30;93376.16;5058616;28;19925;-73
2024/01/11 11:37:31;;;;;;;;;;;;;;;0.86;80.29;93365.31;5062987;28;20388;-73
2024/01/11 11:39:59;;;;;;;;;;;;;;;0.85;80.48;93362.00;5064171;28;19956;-73
2024/01/11 11:42:26;;;;;;;;;;;;;;;1.00;81.85;93364.00;5059175;28;20304;-73
2024/01/11 11:44:52;;;;;;;;;;;;;;;1.21;82.96;93351.03;5055954;28;19930;-73
2024/01/11 11:47:20;;;;;;;;;;;;;;;1.30;81.59;93342.53;5062732;28;20388;-73
2024/01/11 11:50:04;;;;;;;;;;;;;;;1.27;80.09;93352.97;5055493;28;19920;-73
2024/01/11 11:52:31;;;;;;;;;;;;;;;1.13;80.43;93343.38;5053658;28;19951;-73
2024/01/11 11:54:58;;;;;;;;;;;;;;;1.12;79.14;93342.59;5056578;28;19920;-72
2024/01/11 11:57:25;;;;;;;;;;;;;;;1.44;78.82;93338.66;5050088;28;20311;-73
2024/01/11 11:59:52;;;;;;;;;;;;;;;1.16;80.43;93328.69;5054654;28;19927;-73
2024/01/11 12:02:19;;;;;;;;;;;;;;;1.49;82.95;93328.09;5053237;28;19925;-73
2024/01/11 12:04:47;;;;;;;;;;;;;;;1.28;80.39;93331.78;5051600;28;19936;-73
2024/01/11 12:07:16;;;;;;;;;;;;;;;1.35;79.69;93324.38;5056032;28;20316;-73
2024/01/11 12:09:42;;;;;;;;;;;;;;;1.31;81.52;93323.09;5055726;28;19925;-73
2024/01/11 12:12:09;;;;;;;;;;;;;;;1.55;83.24;93322.44;5049888;28;19929;-73
2024/01/11 12:14:37;;;;;;;;;;;;;;;1.23;81.13;93315.44;5054647;28;21023;-73
2024/01/11 12:17:04;;;;;;;;;;;;;;;1.28;82.82;93314.06;5048601;28;19930;-72
2024/01/11 12:19:30;;;;;;;;;;;;;;;1.24;81.82;93310.25;5049423;28;20344;-73
2024/01/11 12:21:59;;;;;;;;;;;;;;;1.31;80.94;93300.31;5053228;28;19930;-72
2024/01/11 12:24:27;;;;;;;;;;;;;;;1.36;79.68;93302.38;5053776;28;19927;-72
2024/01/11 12:26:54;;;;;;;;;;;;;;;1.28;80.55;93301.41;5055499;28;19999;-72
2024/01/11 12:29:21;;;;;;;;;;;;;;;1.26;81.97;93302.50;5050536;28;19920;-73
2024/01/11 12:31:48;;;;;;;;;;;;;;;1.25;82.85;93298.38;5061419;28;19951;-73
2024/01/11 12:34:15;;;;;;;;;;;;;;;1.37;83.74;93297.19;5061331;28;20303;-72
2024/01/11 12:36:41;;;;;;;;;;;;;;;1.36;79.32;93297.31;5051400;28;20575;-72
2024/01/11 12:39:09;;;;;;;;;;;;;;;1.66;81.48;93285.91;5052810;28;20726;-73
2024/01/11 12:41:37;;;;;;;;;;;;;;;1.51;78.29;93298.34;5049037;28;19931;-73
2024/01/11 12:44:04;;;;;;;;;;;;;;;1.49;77.34;93297.72;5049357;28;19974;-73
2024/01/11 12:46:30;;;;;;;;;;;;;;;1.50;78.18;93293.44;5051614;28;19924;-73